sensor_id;sensor_type;location;lat;lon;timestamp;temperature;humidity
5723;DHT22;2886;49.722;8.612;2023-04-03T00:01:08;3.10;99.90
5723;DHT22;2886;49.722;8.612;2023-04-03T00:03:34;3.00;99.90
5723;DHT22;2886;49.722;8.612;2023-04-03T00:06:01;3.00;99.90
5723;DHT22;2886;49.722;8.612;2023-04-03T00:08:27;3.00;99.90
5723;DHT22;2886;49.722;8.612;2023-04-03T00:10:52;2.90;99.90
5723;DHT22;2886;49.722;8.612;2023-04-03T00:13:18;2.90;99.90
5723;DHT22;2886;49.722;8.612;2023-04-03T00:15:44;2.90;99.90
5723;DHT22;2886;49.722;8.612;2023-04-03T00:18:10;2.90;99.90
5723;DHT22;2886;49.722;8.612;2023-04-03T00:20:36;2.80;99.90
5723;DHT22;2886;49.722;8.612;2023-04-03T00:23:02;2.80;99.90
5723;DHT22;2886;49.722;8.612;2023-04-03T00:25:28;2.80;99.90
5723;DHT22;2886;49.722;8.612;2023-04-03T00:27:54;2.80;99.90
5723;DHT22;2886;49.722;8.612;2023-04-03T00:30:21;2.70;99.90
5723;DHT22;2886;49.722;8.612;2023-04-03T00:32:51;2.70;99.90
5723;DHT22;2886;49.722;8.612;2023-04-03T00:35:17;2.70;99.90
5723;DHT22;2886;49.722;8.612;2023-04-03T00:37:44;2.70;99.90
5723;DHT22;2886;49.722;8.612;2023-04-03T00:40:12;2.70;99.90
5723;DHT22;2886;49.722;8.612;2023-04-03T00:42:40;2.70;99.90
5723;DHT22;2886;49.722;8.612;2023-04-03T00:47:31;2.60;99.90
5723;DHT22;2886;49.722;8.612;2023-04-03T00:49:57;2.60;99.90
5723;DHT22;2886;49.722;8.612;2023-04-03T00:52:27;2.60;99.90
5723;DHT22;2886;49.722;8.612;2023-04-03T00:54:56;2.60;99.90
5723;DHT22;2886;49.722;8.612;2023-04-03T00:57:22;2.50;99.90
5723;DHT22;2886;49.722;8.612;2023-04-03T00:59:51;2.50;99.90
5723;DHT22;2886;49.722;8.612;2023-04-03T01:02:18;2.50;99.90
5723;DHT22;2886;49.722;8.612;2023-04-03T01:04:44;2.50;99.90
5723;DHT22;2886;49.722;8.612;2023-04-03T01:07:16;2.50;99.90
5723;DHT22;2886;49.722;8.612;2023-04-03T01:09:44;2.50;99.90
5723;DHT22;2886;49.722;8.612;2023-04-03T01:12:22;2.40;99.90
5723;DHT22;2886;49.722;8.612;2023-04-03T01:14:54;2.40;99.90
5723;DHT22;2886;49.722;8.612;2023-04-03T01:17:30;2.40;99.90
5723;DHT22;2886;49.722;8.612;2023-04-03T01:25:36;2.40;99.90
5723;DHT22;2886;49.722;8.612;2023-04-03T01:28:08;2.40;99.90
5723;DHT22;2886;49.722;8.612;2023-04-03T01:30:36;2.30;99.90
5723;DHT22;2886;49.722;8.612;2023-04-03T01:33:05;2.30;99.90
5723;DHT22;2886;49.722;8.612;2023-04-03T01:35:31;2.30;99.90
5723;DHT22;2886;49.722;8.612;2023-04-03T01:41:06;2.20;99.90
5723;DHT22;2886;49.722;8.612;2023-04-03T01:43:32;2.20;99.90
5723;DHT22;2886;49.722;8.612;2023-04-03T01:45:57;2.20;99.90
5723;DHT22;2886;49.722;8.612;2023-04-03T01:48:23;2.20;99.90
5723;DHT22;2886;49.722;8.612;2023-04-03T01:50:49;2.20;99.90
5723;DHT22;2886;49.722;8.612;2023-04-03T01:53:14;2.20;99.90
5723;DHT22;2886;49.722;8.612;2023-04-03T01:55:40;2.20;99.90
5723;DHT22;2886;49.722;8.612;2023-04-03T01:58:06;2.20;99.90
5723;DHT22;2886;49.722;8.612;2023-04-03T02:00:31;2.20;99.90
5723;DHT22;2886;49.722;8.612;2023-04-03T02:02:57;2.10;99.90
5723;DHT22;2886;49.722;8.612;2023-04-03T02:05:23;2.10;99.90
5723;DHT22;2886;49.722;8.612;2023-04-03T02:07:48;2.10;99.90
5723;DHT22;2886;49.722;8.612;2023-04-03T02:10:14;2.10;99.90
5723;DHT22;2886;49.722;8.612;2023-04-03T02:12:40;2.10;99.90
5723;DHT22;2886;49.722;8.612;2023-04-03T02:15:06;2.00;99.90
5723;DHT22;2886;49.722;8.612;2023-04-03T02:17:32;2.00;99.90
5723;DHT22;2886;49.722;8.612;2023-04-03T02:19:57;2.00;99.90
5723;DHT22;2886;49.722;8.612;2023-04-03T02:22:23;2.00;99.90
5723;DHT22;2886;49.722;8.612;2023-04-03T02:24:49;2.00;99.90
5723;DHT22;2886;49.722;8.612;2023-04-03T02:27:15;2.00;99.90
5723;DHT22;2886;49.722;8.612;2023-04-03T02:29:41;2.00;99.90
5723;DHT22;2886;49.722;8.612;2023-04-03T02:32:06;2.00;99.90
5723;DHT22;2886;49.722;8.612;2023-04-03T02:34:35;1.90;99.90
5723;DHT22;2886;49.722;8.612;2023-04-03T02:37:00;1.80;99.90
5723;DHT22;2886;49.722;8.612;2023-04-03T02:39:46;1.80;99.90
5723;DHT22;2886;49.722;8.612;2023-04-03T02:42:11;1.90;99.90
5723;DHT22;2886;49.722;8.612;2023-04-03T02:44:37;1.90;99.90
5723;DHT22;2886;49.722;8.612;2023-04-03T02:47:04;1.90;99.90
5723;DHT22;2886;49.722;8.612;2023-04-03T02:49:29;1.90;99.90
5723;DHT22;2886;49.722;8.612;2023-04-03T02:51:55;2.00;99.90
5723;DHT22;2886;49.722;8.612;2023-04-03T02:54:23;2.00;99.90
5723;DHT22;2886;49.722;8.612;2023-04-03T02:56:54;2.00;99.90
5723;DHT22;2886;49.722;8.612;2023-04-03T02:59:19;1.90;99.90
5723;DHT22;2886;49.722;8.612;2023-04-03T03:01:45;1.80;99.90
5723;DHT22;2886;49.722;8.612;2023-04-03T03:04:11;1.80;99.90
5723;DHT22;2886;49.722;8.612;2023-04-03T03:06:37;1.80;99.90
5723;DHT22;2886;49.722;8.612;2023-04-03T03:09:03;1.80;99.90
5723;DHT22;2886;49.722;8.612;2023-04-03T03:11:29;1.80;99.90
5723;DHT22;2886;49.722;8.612;2023-04-03T03:13:55;1.80;99.90
5723;DHT22;2886;49.722;8.612;2023-04-03T03:16:21;1.80;99.90
5723;DHT22;2886;49.722;8.612;2023-04-03T03:18:47;1.90;99.90
5723;DHT22;2886;49.722;8.612;2023-04-03T03:21:13;1.90;99.90
5723;DHT22;2886;49.722;8.612;2023-04-03T03:23:39;1.90;99.90
5723;DHT22;2886;49.722;8.612;2023-04-03T03:26:07;1.90;99.90
5723;DHT22;2886;49.722;8.612;2023-04-03T03:28:33;1.90;99.90
5723;DHT22;2886;49.722;8.612;2023-04-03T03:30:59;1.90;99.90
5723;DHT22;2886;49.722;8.612;2023-04-03T03:33:25;1.80;99.90
5723;DHT22;2886;49.722;8.612;2023-04-03T03:35:52;1.80;99.90
5723;DHT22;2886;49.722;8.612;2023-04-03T03:38:19;1.80;99.90
5723;DHT22;2886;49.722;8.612;2023-04-03T03:40:47;1.80;99.90
5723;DHT22;2886;49.722;8.612;2023-04-03T03:43:14;1.80;99.90
5723;DHT22;2886;49.722;8.612;2023-04-03T03:45:39;1.80;99.90
5723;DHT22;2886;49.722;8.612;2023-04-03T03:48:05;1.80;99.90
5723;DHT22;2886;49.722;8.612;2023-04-03T03:50:31;1.80;99.90
5723;DHT22;2886;49.722;8.612;2023-04-03T03:52:56;1.80;99.90
5723;DHT22;2886;49.722;8.612;2023-04-03T03:55:22;1.80;99.90
5723;DHT22;2886;49.722;8.612;2023-04-03T03:57:48;1.70;99.90
5723;DHT22;2886;49.722;8.612;2023-04-03T04:00:14;1.70;99.90
5723;DHT22;2886;49.722;8.612;2023-04-03T04:02:40;1.70;99.90
5723;DHT22;2886;49.722;8.612;2023-04-03T04:05:06;1.60;99.90
5723;DHT22;2886;49.722;8.612;2023-04-03T04:07:32;1.60;99.90
5723;DHT22;2886;49.722;8.612;2023-04-03T04:09:58;1.60;99.90
5723;DHT22;2886;49.722;8.612;2023-04-03T04:12:24;1.60;99.90
5723;DHT22;2886;49.722;8.612;2023-04-03T04:14:50;1.60;99.90
5723;DHT22;2886;49.722;8.612;2023-04-03T04:17:15;1.70;99.90
5723;DHT22;2886;49.722;8.612;2023-04-03T04:19:41;1.70;99.90
5723;DHT22;2886;49.722;8.612;2023-04-03T04:22:06;1.70;99.90
5723;DHT22;2886;49.722;8.612;2023-04-03T04:24:32;1.70;99.90
5723;DHT22;2886;49.722;8.612;2023-04-03T04:26:58;1.70;99.90
5723;DHT22;2886;49.722;8.612;2023-04-03T04:29:23;1.70;99.90
5723;DHT22;2886;49.722;8.612;2023-04-03T04:31:49;1.60;99.90
5723;DHT22;2886;49.722;8.612;2023-04-03T04:34:15;1.60;99.90
5723;DHT22;2886;49.722;8.612;2023-04-03T04:36:41;1.80;99.90
5723;DHT22;2886;49.722;8.612;2023-04-03T04:39:06;1.80;99.90
5723;DHT22;2886;49.722;8.612;2023-04-03T04:41:32;1.90;99.90
5723;DHT22;2886;49.722;8.612;2023-04-03T04:43:58;2.00;99.90
5723;DHT22;2886;49.722;8.612;2023-04-03T04:46:23;2.20;99.90
5723;DHT22;2886;49.722;8.612;2023-04-03T04:48:49;2.20;99.90
5723;DHT22;2886;49.722;8.612;2023-04-03T04:51:15;2.30;99.90
5723;DHT22;2886;49.722;8.612;2023-04-03T04:53:41;2.40;99.90
5723;DHT22;2886;49.722;8.612;2023-04-03T04:56:07;2.50;99.90
5723;DHT22;2886;49.722;8.612;2023-04-03T04:58:34;2.60;99.90
5723;DHT22;2886;49.722;8.612;2023-04-03T05:01:08;2.50;99.90
5723;DHT22;2886;49.722;8.612;2023-04-03T05:03:34;2.40;99.90
5723;DHT22;2886;49.722;8.612;2023-04-03T05:06:00;2.40;99.90
5723;DHT22;2886;49.722;8.612;2023-04-03T05:08:25;2.40;99.90
5723;DHT22;2886;49.722;8.612;2023-04-03T05:10:51;2.40;99.90
5723;DHT22;2886;49.722;8.612;2023-04-03T05:13:18;2.50;99.90
5723;DHT22;2886;49.722;8.612;2023-04-03T05:15:44;2.50;99.90
5723;DHT22;2886;49.722;8.612;2023-04-03T05:18:10;2.60;99.90
5723;DHT22;2886;49.722;8.612;2023-04-03T05:20:36;2.60;99.90
5723;DHT22;2886;49.722;8.612;2023-04-03T05:23:02;2.70;99.90
5723;DHT22;2886;49.722;8.612;2023-04-03T05:25:28;2.70;99.90
5723;DHT22;2886;49.722;8.612;2023-04-03T05:27:54;2.80;99.90
5723;DHT22;2886;49.722;8.612;2023-04-03T05:30:20;2.90;99.90
5723;DHT22;2886;49.722;8.612;2023-04-03T05:32:46;2.90;99.90
5723;DHT22;2886;49.722;8.612;2023-04-03T05:35:12;3.00;99.90
5723;DHT22;2886;49.722;8.612;2023-04-03T05:37:37;3.10;99.90
5723;DHT22;2886;49.722;8.612;2023-04-03T05:40:04;3.10;99.90
5723;DHT22;2886;49.722;8.612;2023-04-03T05:42:30;3.10;99.90
5723;DHT22;2886;49.722;8.612;2023-04-03T05:44:56;3.10;99.90
5723;DHT22;2886;49.722;8.612;2023-04-03T05:47:22;3.20;99.90
5723;DHT22;2886;49.722;8.612;2023-04-03T05:49:47;3.20;99.90
5723;DHT22;2886;49.722;8.612;2023-04-03T05:52:26;3.20;99.90
5723;DHT22;2886;49.722;8.612;2023-04-03T05:54:52;3.20;99.90
5723;DHT22;2886;49.722;8.612;2023-04-03T05:57:18;3.30;99.90
5723;DHT22;2886;49.722;8.612;2023-04-03T05:59:45;3.30;99.90
5723;DHT22;2886;49.722;8.612;2023-04-03T06:02:12;3.30;99.90
5723;DHT22;2886;49.722;8.612;2023-04-03T06:04:38;3.30;99.90
5723;DHT22;2886;49.722;8.612;2023-04-03T06:07:04;3.30;99.90
5723;DHT22;2886;49.722;8.612;2023-04-03T06:09:30;3.30;99.90
5723;DHT22;2886;49.722;8.612;2023-04-03T06:11:57;3.30;99.90
5723;DHT22;2886;49.722;8.612;2023-04-03T06:14:26;3.30;99.90
5723;DHT22;2886;49.722;8.612;2023-04-03T06:16:52;3.40;99.90
5723;DHT22;2886;49.722;8.612;2023-04-03T06:19:19;3.60;99.90
5723;DHT22;2886;49.722;8.612;2023-04-03T06:21:45;3.80;99.90
5723;DHT22;2886;49.722;8.612;2023-04-03T06:24:14;3.90;99.90
5723;DHT22;2886;49.722;8.612;2023-04-03T06:26:41;4.10;99.90
5723;DHT22;2886;49.722;8.612;2023-04-03T06:29:07;4.30;99.90
5723;DHT22;2886;49.722;8.612;2023-04-03T06:31:33;4.40;99.90
5723;DHT22;2886;49.722;8.612;2023-04-03T06:33:58;4.50;99.90
5723;DHT22;2886;49.722;8.612;2023-04-03T06:36:25;4.50;99.90
5723;DHT22;2886;49.722;8.612;2023-04-03T06:38:51;4.50;99.90
5723;DHT22;2886;49.722;8.612;2023-04-03T06:41:16;4.60;99.90
5723;DHT22;2886;49.722;8.612;2023-04-03T06:43:43;4.60;99.90
5723;DHT22;2886;49.722;8.612;2023-04-03T06:46:20;4.80;99.90
5723;DHT22;2886;49.722;8.612;2023-04-03T06:48:47;4.90;99.90
5723;DHT22;2886;49.722;8.612;2023-04-03T06:51:19;5.00;99.90
5723;DHT22;2886;49.722;8.612;2023-04-03T06:53:47;5.10;99.90
5723;DHT22;2886;49.722;8.612;2023-04-03T06:56:12;5.30;99.90
5723;DHT22;2886;49.722;8.612;2023-04-03T06:58:39;5.30;99.90
5723;DHT22;2886;49.722;8.612;2023-04-03T07:01:04;5.20;99.90
5723;DHT22;2886;49.722;8.612;2023-04-03T07:03:30;5.10;99.90
5723;DHT22;2886;49.722;8.612;2023-04-03T07:05:56;5.10;99.90
5723;DHT22;2886;49.722;8.612;2023-04-03T07:08:22;5.10;99.90
5723;DHT22;2886;49.722;8.612;2023-04-03T07:10:49;5.20;99.90
5723;DHT22;2886;49.722;8.612;2023-04-03T07:13:15;5.10;99.90
5723;DHT22;2886;49.722;8.612;2023-04-03T07:15:41;5.10;99.90
5723;DHT22;2886;49.722;8.612;2023-04-03T07:18:06;5.20;99.90
5723;DHT22;2886;49.722;8.612;2023-04-03T07:20:32;5.30;99.90
5723;DHT22;2886;49.722;8.612;2023-04-03T07:22:58;5.30;99.90
5723;DHT22;2886;49.722;8.612;2023-04-03T07:25:24;5.50;99.90
5723;DHT22;2886;49.722;8.612;2023-04-03T07:27:49;5.60;99.90
5723;DHT22;2886;49.722;8.612;2023-04-03T07:30:15;5.60;99.90
5723;DHT22;2886;49.722;8.612;2023-04-03T07:32:41;5.70;99.90
5723;DHT22;2886;49.722;8.612;2023-04-03T07:35:07;5.90;99.90
5723;DHT22;2886;49.722;8.612;2023-04-03T07:37:33;5.90;99.90
5723;DHT22;2886;49.722;8.612;2023-04-03T07:39:58;6.10;99.10
5723;DHT22;2886;49.722;8.612;2023-04-03T07:42:25;6.10;98.50
5723;DHT22;2886;49.722;8.612;2023-04-03T07:44:53;6.10;98.30
5723;DHT22;2886;49.722;8.612;2023-04-03T07:47:19;6.10;98.50
5723;DHT22;2886;49.722;8.612;2023-04-03T07:49:46;6.30;97.30
5723;DHT22;2886;49.722;8.612;2023-04-03T07:52:12;6.30;96.00
5723;DHT22;2886;49.722;8.612;2023-04-03T07:54:40;6.40;96.00
5723;DHT22;2886;49.722;8.612;2023-04-03T07:57:05;6.50;95.60
5723;DHT22;2886;49.722;8.612;2023-04-03T07:59:31;6.40;93.80
5723;DHT22;2886;49.722;8.612;2023-04-03T08:01:57;6.60;94.10
5723;DHT22;2886;49.722;8.612;2023-04-03T08:04:23;6.80;92.30
5723;DHT22;2886;49.722;8.612;2023-04-03T08:06:49;6.80;91.00
5723;DHT22;2886;49.722;8.612;2023-04-03T08:09:15;6.80;90.60
5723;DHT22;2886;49.722;8.612;2023-04-03T08:11:41;6.50;89.80
5723;DHT22;2886;49.722;8.612;2023-04-03T08:14:07;6.20;90.70
5723;DHT22;2886;49.722;8.612;2023-04-03T08:16:32;6.10;90.70
5723;DHT22;2886;49.722;8.612;2023-04-03T08:18:58;6.30;90.70
5723;DHT22;2886;49.722;8.612;2023-04-03T08:21:24;6.50;90.60
5723;DHT22;2886;49.722;8.612;2023-04-03T08:23:51;6.70;90.20
5723;DHT22;2886;49.722;8.612;2023-04-03T08:26:18;6.50;82.50
5723;DHT22;2886;49.722;8.612;2023-04-03T08:28:44;6.50;82.50
5723;DHT22;2886;49.722;8.612;2023-04-03T08:31:13;6.50;83.70
5723;DHT22;2886;49.722;8.612;2023-04-03T08:33:39;6.50;81.20
5723;DHT22;2886;49.722;8.612;2023-04-03T08:36:07;6.60;82.90
5723;DHT22;2886;49.722;8.612;2023-04-03T08:38:34;6.90;77.60
5723;DHT22;2886;49.722;8.612;2023-04-03T08:41:42;7.30;77.20
5723;DHT22;2886;49.722;8.612;2023-04-03T08:52:22;7.40;67.00
5723;DHT22;2886;49.722;8.612;2023-04-03T08:54:53;7.70;68.00
5723;DHT22;2886;49.722;8.612;2023-04-03T08:57:36;7.60;68.10
5723;DHT22;2886;49.722;8.612;2023-04-03T09:00:47;7.60;66.20
5723;DHT22;2886;49.722;8.612;2023-04-03T09:03:16;7.70;64.40
5723;DHT22;2886;49.722;8.612;2023-04-03T09:08:50;8.00;62.50
5723;DHT22;2886;49.722;8.612;2023-04-03T09:11:24;8.60;59.00
5723;DHT22;2886;49.722;8.612;2023-04-03T09:17:03;8.10;58.40
5723;DHT22;2886;49.722;8.612;2023-04-03T09:19:43;8.20;56.90
5723;DHT22;2886;49.722;8.612;2023-04-03T09:22:24;8.40;58.30
5723;DHT22;2886;49.722;8.612;2023-04-03T09:25:32;8.50;56.70
5723;DHT22;2886;49.722;8.612;2023-04-03T09:27:51;8.60;55.10
5723;DHT22;2886;49.722;8.612;2023-04-03T09:30:23;8.70;53.70
5723;DHT22;2886;49.722;8.612;2023-04-03T09:32:51;9.10;53.70
5723;DHT22;2886;49.722;8.612;2023-04-03T09:37:52;8.80;53.40
5723;DHT22;2886;49.722;8.612;2023-04-03T09:40:38;8.30;49.90
5723;DHT22;2886;49.722;8.612;2023-04-03T09:45:43;8.50;52.20
5723;DHT22;2886;49.722;8.612;2023-04-03T09:50:59;8.50;49.60
5723;DHT22;2886;49.722;8.612;2023-04-03T09:53:40;8.10;50.10
5723;DHT22;2886;49.722;8.612;2023-04-03T09:58:44;8.50;50.30
5723;DHT22;2886;49.722;8.612;2023-04-03T10:04:07;8.60;50.00
5723;DHT22;2886;49.722;8.612;2023-04-03T10:06:39;8.90;50.10
5723;DHT22;2886;49.722;8.612;2023-04-03T10:09:28;8.90;49.30
5723;DHT22;2886;49.722;8.612;2023-04-03T10:12:00;8.50;50.40
5723;DHT22;2886;49.722;8.612;2023-04-03T10:14:28;9.20;48.90
5723;DHT22;2886;49.722;8.612;2023-04-03T10:17:03;9.40;48.70
5723;DHT22;2886;49.722;8.612;2023-04-03T10:19:39;9.20;47.60
5723;DHT22;2886;49.722;8.612;2023-04-03T10:22:21;8.70;50.30
5723;DHT22;2886;49.722;8.612;2023-04-03T10:28:00;8.60;49.40
5723;DHT22;2886;49.722;8.612;2023-04-03T10:30:34;9.10;48.90
5723;DHT22;2886;49.722;8.612;2023-04-03T10:39:01;8.30;47.70
5723;DHT22;2886;49.722;8.612;2023-04-03T10:50:00;10.20;43.50
5723;DHT22;2886;49.722;8.612;2023-04-03T10:57:50;10.00;48.20
5723;DHT22;2886;49.722;8.612;2023-04-03T11:00:21;9.40;48.70
5723;DHT22;2886;49.722;8.612;2023-04-03T11:03:05;9.20;49.70
5723;DHT22;2886;49.722;8.612;2023-04-03T11:05:41;9.80;49.90
5723;DHT22;2886;49.722;8.612;2023-04-03T11:10:58;10.10;47.80
5723;DHT22;2886;49.722;8.612;2023-04-03T11:16:18;9.30;49.30
5723;DHT22;2886;49.722;8.612;2023-04-03T11:19:12;8.80;50.60
5723;DHT22;2886;49.722;8.612;2023-04-03T11:21:42;8.80;50.20
5723;DHT22;2886;49.722;8.612;2023-04-03T11:24:30;8.70;52.30
5723;DHT22;2886;49.722;8.612;2023-04-03T11:26:56;8.80;49.70
5723;DHT22;2886;49.722;8.612;2023-04-03T11:29:29;8.90;50.10
5723;DHT22;2886;49.722;8.612;2023-04-03T11:34:53;9.70;47.20
5723;DHT22;2886;49.722;8.612;2023-04-03T11:40:21;9.70;46.70
5723;DHT22;2886;49.722;8.612;2023-04-03T11:42:49;9.40;46.30
5723;DHT22;2886;49.722;8.612;2023-04-03T11:47:54;9.10;47.40
5723;DHT22;2886;49.722;8.612;2023-04-03T12:16:40;10.30;45.90
5723;DHT22;2886;49.722;8.612;2023-04-03T12:22:06;9.20;45.20
5723;DHT22;2886;49.722;8.612;2023-04-03T12:24:38;9.10;45.40
5723;DHT22;2886;49.722;8.612;2023-04-03T12:27:32;8.90;45.70
5723;DHT22;2886;49.722;8.612;2023-04-03T12:48:59;9.20;43.60
5723;DHT22;2886;49.722;8.612;2023-04-03T12:51:37;9.30;44.10
5723;DHT22;2886;49.722;8.612;2023-04-03T12:54:32;9.10;44.80
5723;DHT22;2886;49.722;8.612;2023-04-03T12:57:31;9.00;44.50
5723;DHT22;2886;49.722;8.612;2023-04-03T12:59:58;9.00;44.60
5723;DHT22;2886;49.722;8.612;2023-04-03T13:02:29;8.80;44.40
5723;DHT22;2886;49.722;8.612;2023-04-03T13:05:04;8.50;44.70
5723;DHT22;2886;49.722;8.612;2023-04-03T13:07:32;8.30;44.80
5723;DHT22;2886;49.722;8.612;2023-04-03T13:12:32;8.40;45.60
5723;DHT22;2886;49.722;8.612;2023-04-03T13:15:02;8.60;44.70
5723;DHT22;2886;49.722;8.612;2023-04-03T13:17:30;8.60;43.90
5723;DHT22;2886;49.722;8.612;2023-04-03T13:20:13;8.70;42.30
5723;DHT22;2886;49.722;8.612;2023-04-03T13:22:47;8.70;42.90
5723;DHT22;2886;49.722;8.612;2023-04-03T13:25:15;8.80;42.40
5723;DHT22;2886;49.722;8.612;2023-04-03T13:27:42;8.70;42.20
5723;DHT22;2886;49.722;8.612;2023-04-03T13:30:31;8.60;42.60
5723;DHT22;2886;49.722;8.612;2023-04-03T13:33:01;8.40;42.80
5723;DHT22;2886;49.722;8.612;2023-04-03T13:38:05;8.40;42.70
5723;DHT22;2886;49.722;8.612;2023-04-03T13:40:32;8.70;43.00
5723;DHT22;2886;49.722;8.612;2023-04-03T13:43:04;8.80;41.30
5723;DHT22;2886;49.722;8.612;2023-04-03T13:45:32;8.80;42.00
5723;DHT22;2886;49.722;8.612;2023-04-03T13:48:14;8.80;41.10
5723;DHT22;2886;49.722;8.612;2023-04-03T13:51:04;8.70;41.20
5723;DHT22;2886;49.722;8.612;2023-04-03T13:53:31;8.70;40.60
5723;DHT22;2886;49.722;8.612;2023-04-03T13:56:06;8.70;40.10
5723;DHT22;2886;49.722;8.612;2023-04-03T13:58:34;8.90;41.20
5723;DHT22;2886;49.722;8.612;2023-04-03T14:01:20;8.80;40.60
5723;DHT22;2886;49.722;8.612;2023-04-03T14:04:00;8.80;40.50
5723;DHT22;2886;49.722;8.612;2023-04-03T14:06:26;9.00;40.00
5723;DHT22;2886;49.722;8.612;2023-04-03T14:08:53;9.10;39.20
5723;DHT22;2886;49.722;8.612;2023-04-03T14:11:22;9.00;40.50
5723;DHT22;2886;49.722;8.612;2023-04-03T14:13:48;9.10;40.10
5723;DHT22;2886;49.722;8.612;2023-04-03T14:16:20;8.90;39.50
5723;DHT22;2886;49.722;8.612;2023-04-03T14:18:47;8.80;39.20
5723;DHT22;2886;49.722;8.612;2023-04-03T14:21:15;8.70;39.00
5723;DHT22;2886;49.722;8.612;2023-04-03T14:23:42;8.80;39.40
5723;DHT22;2886;49.722;8.612;2023-04-03T14:26:19;8.80;38.70
5723;DHT22;2886;49.722;8.612;2023-04-03T14:28:47;8.60;38.30
5723;DHT22;2886;49.722;8.612;2023-04-03T14:31:13;8.60;38.80
5723;DHT22;2886;49.722;8.612;2023-04-03T14:33:40;8.80;39.50
5723;DHT22;2886;49.722;8.612;2023-04-03T14:36:13;8.90;37.20
5723;DHT22;2886;49.722;8.612;2023-04-03T14:38:39;8.90;37.90
5723;DHT22;2886;49.722;8.612;2023-04-03T14:41:05;8.80;36.80
5723;DHT22;2886;49.722;8.612;2023-04-03T14:43:31;8.90;37.40
5723;DHT22;2886;49.722;8.612;2023-04-03T14:45:56;9.00;37.30
5723;DHT22;2886;49.722;8.612;2023-04-03T14:48:25;9.00;37.50
5723;DHT22;2886;49.722;8.612;2023-04-03T14:50:52;9.10;37.80
5723;DHT22;2886;49.722;8.612;2023-04-03T14:53:19;9.10;37.10
5723;DHT22;2886;49.722;8.612;2023-04-03T14:55:48;9.00;38.30
5723;DHT22;2886;49.722;8.612;2023-04-03T14:58:16;9.20;38.50
5723;DHT22;2886;49.722;8.612;2023-04-03T15:00:43;9.10;36.80
5723;DHT22;2886;49.722;8.612;2023-04-03T15:03:21;9.00;36.90
5723;DHT22;2886;49.722;8.612;2023-04-03T15:05:48;9.00;37.90
5723;DHT22;2886;49.722;8.612;2023-04-03T15:08:22;9.00;36.30
5723;DHT22;2886;49.722;8.612;2023-04-03T15:10:50;9.00;36.90
5723;DHT22;2886;49.722;8.612;2023-04-03T15:13:19;9.10;37.50
5723;DHT22;2886;49.722;8.612;2023-04-03T15:15:46;9.10;35.90
5723;DHT22;2886;49.722;8.612;2023-04-03T15:18:18;9.00;34.30
5723;DHT22;2886;49.722;8.612;2023-04-03T15:20:45;9.10;35.40
5723;DHT22;2886;49.722;8.612;2023-04-03T15:23:15;9.10;35.10
5723;DHT22;2886;49.722;8.612;2023-04-03T15:25:45;9.00;34.90
5723;DHT22;2886;49.722;8.612;2023-04-03T15:28:22;9.00;35.30
5723;DHT22;2886;49.722;8.612;2023-04-03T15:30:48;9.00;35.00
5723;DHT22;2886;49.722;8.612;2023-04-03T15:33:14;9.00;34.70
5723;DHT22;2886;49.722;8.612;2023-04-03T15:35:41;9.10;35.60
5723;DHT22;2886;49.722;8.612;2023-04-03T15:38:07;9.10;35.70
5723;DHT22;2886;49.722;8.612;2023-04-03T15:40:33;9.20;36.30
5723;DHT22;2886;49.722;8.612;2023-04-03T15:42:58;9.30;36.40
5723;DHT22;2886;49.722;8.612;2023-04-03T15:45:24;9.30;35.70
5723;DHT22;2886;49.722;8.612;2023-04-03T15:47:50;9.20;36.00
5723;DHT22;2886;49.722;8.612;2023-04-03T15:50:16;9.30;35.70
5723;DHT22;2886;49.722;8.612;2023-04-03T15:52:41;9.20;36.20
5723;DHT22;2886;49.722;8.612;2023-04-03T15:55:07;9.20;35.80
5723;DHT22;2886;49.722;8.612;2023-04-03T15:57:33;9.20;35.10
5723;DHT22;2886;49.722;8.612;2023-04-03T15:59:58;9.20;35.20
5723;DHT22;2886;49.722;8.612;2023-04-03T16:02:24;9.20;35.10
5723;DHT22;2886;49.722;8.612;2023-04-03T16:04:54;9.20;35.10
5723;DHT22;2886;49.722;8.612;2023-04-03T16:07:20;9.30;36.20
5723;DHT22;2886;49.722;8.612;2023-04-03T16:09:46;9.20;36.00
5723;DHT22;2886;49.722;8.612;2023-04-03T16:12:11;9.10;35.50
5723;DHT22;2886;49.722;8.612;2023-04-03T16:14:37;9.10;36.40
5723;DHT22;2886;49.722;8.612;2023-04-03T16:17:03;8.90;35.50
5723;DHT22;2886;49.722;8.612;2023-04-03T16:19:29;8.80;36.40
5723;DHT22;2886;49.722;8.612;2023-04-03T16:21:55;8.80;37.40
5723;DHT22;2886;49.722;8.612;2023-04-03T16:24:21;8.80;37.10
5723;DHT22;2886;49.722;8.612;2023-04-03T16:26:47;8.90;36.80
5723;DHT22;2886;49.722;8.612;2023-04-03T16:29:12;8.90;35.30
5723;DHT22;2886;49.722;8.612;2023-04-03T16:31:38;8.90;34.70
5723;DHT22;2886;49.722;8.612;2023-04-03T16:34:04;9.00;35.60
5723;DHT22;2886;49.722;8.612;2023-04-03T16:36:29;9.00;36.10
5723;DHT22;2886;49.722;8.612;2023-04-03T16:38:55;9.10;36.10
5723;DHT22;2886;49.722;8.612;2023-04-03T16:41:21;9.10;36.80
5723;DHT22;2886;49.722;8.612;2023-04-03T16:43:51;9.10;36.80
5723;DHT22;2886;49.722;8.612;2023-04-03T16:46:17;9.00;38.10
5723;DHT22;2886;49.722;8.612;2023-04-03T16:48:43;8.90;38.50
5723;DHT22;2886;49.722;8.612;2023-04-03T16:51:08;8.90;38.50
5723;DHT22;2886;49.722;8.612;2023-04-03T16:53:34;8.80;39.30
5723;DHT22;2886;49.722;8.612;2023-04-03T16:56:01;8.80;39.50
5723;DHT22;2886;49.722;8.612;2023-04-03T16:58:26;8.70;39.40
5723;DHT22;2886;49.722;8.612;2023-04-03T17:00:52;8.70;38.70
5723;DHT22;2886;49.722;8.612;2023-04-03T17:03:19;8.60;40.20
5723;DHT22;2886;49.722;8.612;2023-04-03T17:05:48;8.60;41.00
5723;DHT22;2886;49.722;8.612;2023-04-03T17:08:13;8.60;41.00
5723;DHT22;2886;49.722;8.612;2023-04-03T17:10:39;8.50;41.80
5723;DHT22;2886;49.722;8.612;2023-04-03T17:13:05;8.40;41.90
5723;DHT22;2886;49.722;8.612;2023-04-03T17:15:31;8.40;42.60
5723;DHT22;2886;49.722;8.612;2023-04-03T17:17:56;8.40;42.70
5723;DHT22;2886;49.722;8.612;2023-04-03T17:20:22;8.40;43.30
5723;DHT22;2886;49.722;8.612;2023-04-03T17:22:49;8.30;43.90
5723;DHT22;2886;49.722;8.612;2023-04-03T17:25:14;8.30;44.80
5723;DHT22;2886;49.722;8.612;2023-04-03T17:27:40;8.20;43.40
5723;DHT22;2886;49.722;8.612;2023-04-03T17:30:06;8.20;44.20
5723;DHT22;2886;49.722;8.612;2023-04-03T17:32:33;8.10;44.30
5723;DHT22;2886;49.722;8.612;2023-04-03T17:34:58;8.10;44.70
5723;DHT22;2886;49.722;8.612;2023-04-03T17:37:24;8.00;45.20
5723;DHT22;2886;49.722;8.612;2023-04-03T17:39:50;7.90;45.40
5723;DHT22;2886;49.722;8.612;2023-04-03T17:42:15;7.90;45.70
5723;DHT22;2886;49.722;8.612;2023-04-03T17:44:41;7.80;46.20
5723;DHT22;2886;49.722;8.612;2023-04-03T17:47:06;7.70;45.50
5723;DHT22;2886;49.722;8.612;2023-04-03T17:49:32;7.70;45.80
5723;DHT22;2886;49.722;8.612;2023-04-03T17:51:58;7.60;45.70
5723;DHT22;2886;49.722;8.612;2023-04-03T17:54:24;7.60;46.20
5723;DHT22;2886;49.722;8.612;2023-04-03T17:56:49;7.50;45.70
5723;DHT22;2886;49.722;8.612;2023-04-03T17:59:16;7.40;46.40
5723;DHT22;2886;49.722;8.612;2023-04-03T18:01:44;7.30;46.80
5723;DHT22;2886;49.722;8.612;2023-04-03T18:04:10;7.30;46.80
5723;DHT22;2886;49.722;8.612;2023-04-03T18:06:39;7.20;47.20
5723;DHT22;2886;49.722;8.612;2023-04-03T18:09:17;7.10;47.60
5723;DHT22;2886;49.722;8.612;2023-04-03T18:11:45;7.00;48.30
5723;DHT22;2886;49.722;8.612;2023-04-03T18:14:17;7.00;47.70
5723;DHT22;2886;49.722;8.612;2023-04-03T18:16:43;6.90;47.80
5723;DHT22;2886;49.722;8.612;2023-04-03T18:19:10;6.80;48.40
5723;DHT22;2886;49.722;8.612;2023-04-03T18:21:37;6.80;48.60
5723;DHT22;2886;49.722;8.612;2023-04-03T18:24:06;6.70;48.70
5723;DHT22;2886;49.722;8.612;2023-04-03T18:26:35;6.60;49.30
5723;DHT22;2886;49.722;8.612;2023-04-03T18:29:03;6.60;49.40
5723;DHT22;2886;49.722;8.612;2023-04-03T18:31:32;6.50;49.40
5723;DHT22;2886;49.722;8.612;2023-04-03T18:33:58;6.50;49.70